Time;durP1;ratioP1;P1;durP2;ratioP2;P2;SDS_P1;SDS_P2;PMS_P1;PMS_P2;Temp;Humidity;BMP_temperature;BMP_pressure;BME280_temperature;BME280_humidity;BME280_pressure;Samples;Min_cycle;Max_cycle;Signal;HPM_P1;HPM_P2
2022/02/03 00:02:18;;;;;;;1999.90;789.47;;;4.60;99.90;;;;;;5116721;28;21003;-77
2022/02/03 00:04:54;;;;;;;1999.90;685.93;;;4.60;99.90;;;;;;5117088;28;20492;-77
2022/02/03 00:07:29;;;;;;;1999.90;751.37;;;4.60;99.90;;;;;;5118289;28;20464;-77
2022/02/03 00:10:23;;;;;;;1999.90;696.20;;;4.70;99.90;;;;;;5118941;28;20917;-78
2022/02/03 00:24:17;;;;;;;1999.90;761.23;;;4.70;99.90;;;;;;5118191;28;20431;-77
2022/02/03 00:26:59;;;;;;;1999.90;570.60;;;4.70;99.90;;;;;;5116874;28;20436;-77
2022/02/03 00:29:48;;;;;;;1999.90;602.60;;;4.70;99.90;;;;;;5117603;28;20493;-77
2022/02/03 00:32:42;;;;;;;1999.90;657.97;;;4.70;99.90;;;;;;5116707;28;20538;-77
2022/02/03 00:35:33;;;;;;;1999.90;670.17;;;4.80;99.90;;;;;;5116677;28;20447;-77
2022/02/03 00:38:23;;;;;;;1999.90;643.93;;;4.80;99.90;;;;;;5116633;28;20607;-77
2022/02/03 00:49:17;;;;;;;1999.90;686.97;;;4.90;99.90;;;;;;5115593;28;20493;-77
2022/02/03 00:51:46;;;;;;;1941.23;504.93;;;4.90;99.90;;;;;;5116258;28;20438;-77
2022/02/03 00:54:16;;;;;;;1933.60;548.07;;;4.90;99.90;;;;;;5115794;28;20454;-77
2022/02/03 00:56:51;;;;;;;1937.53;547.57;;;4.90;99.90;;;;;;5117458;28;20955;-77
2022/02/03 00:59:28;;;;;;;1660.10;419.97;;;5.00;99.90;;;;;;5117093;28;20557;-77
2022/02/03 01:02:00;;;;;;;1999.90;642.93;;;5.00;99.90;;;;;;5117153;28;20515;-77
2022/02/03 01:04:32;;;;;;;1640.87;386.47;;;5.00;99.90;;;;;;5115888;28;20535;-77
2022/02/03 01:07:02;;;;;;;894.93;213.67;;;5.00;99.90;;;;;;5116948;28;20451;-77
2022/02/03 01:09:38;;;;;;;1103.73;281.27;;;5.10;99.90;;;;;;5115678;28;20553;-77
2022/02/03 01:12:15;;;;;;;1127.77;230.73;;;5.10;99.90;;;;;;5117141;28;20966;-77
2022/02/03 01:14:50;;;;;;;834.10;194.83;;;5.10;99.90;;;;;;5115423;28;20533;-77
2022/02/03 01:17:31;;;;;;;119.70;63.87;;;5.10;99.90;;;;;;5115391;28;20924;-77
2022/02/03 01:20:36;;;;;;;227.40;61.87;;;5.10;99.90;;;;;;5115273;28;20504;-77
2022/02/03 01:34:35;;;;;;;291.03;68.97;;;5.30;99.90;;;;;;5115060;28;20443;-77
2022/02/03 01:37:19;;;;;;;180.23;103.97;;;5.30;99.90;;;;;;5114818;28;20447;-77
2022/02/03 01:45:27;;;;;;;190.43;68.03;;;5.30;99.90;;;;;;5115000;28;20522;-78
2022/02/03 01:48:18;;;;;;;123.30;52.63;;;5.30;99.90;;;;;;5116822;28;20979;-78
2022/02/03 01:53:37;;;;;;;107.67;55.33;;;5.40;99.90;;;;;;5115157;28;20439;-77
2022/02/03 01:56:06;;;;;;;192.00;43.63;;;5.40;99.90;;;;;;5116419;28;20435;-78
2022/02/03 01:58:43;;;;;;;199.67;35.70;;;5.40;99.90;;;;;;5114688;28;21028;-77
2022/02/03 02:01:15;;;;;;;213.47;35.43;;;5.40;99.90;;;;;;5116099;28;20416;-77
2022/02/03 02:03:51;;;;;;;145.27;32.80;;;5.40;99.90;;;;;;5114957;28;20467;-77
2022/02/03 02:06:41;;;;;;;117.47;32.90;;;5.40;99.90;;;;;;5114453;28;20451;-77
2022/02/03 02:09:20;;;;;;;246.70;40.60;;;5.40;99.90;;;;;;5116171;28;20466;-78
2022/02/03 02:12:00;;;;;;;241.13;39.27;;;5.40;99.90;;;;;;5115353;28;20456;-78
2022/02/03 02:15:03;;;;;;;117.00;30.33;;;5.40;99.90;;;;;;5115163;28;20450;-77
2022/02/03 02:40:07;;;;;;;168.67;37.87;;;5.50;99.90;;;;;;5112995;28;20480;-78
2022/02/03 02:42:45;;;;;;;188.17;44.13;;;5.60;99.90;;;;;;5115659;28;20452;-78
2022/02/03 02:45:16;;;;;;;266.03;43.17;;;5.60;99.90;;;;;;5115691;28;20572;-78
2022/02/03 02:47:57;;;;;;;143.73;32.03;;;5.60;99.90;;;;;;5115588;28;20513;-78
2022/02/03 02:50:34;;;;;;;204.23;34.73;;;5.60;99.90;;;;;;5115600;28;20467;-78
2022/02/03 02:53:12;;;;;;;187.23;41.87;;;5.60;99.90;;;;;;5116780;28;20506;-78
2022/02/03 02:55:58;;;;;;;189.77;39.27;;;5.60;99.90;;;;;;5115539;28;20991;-78
2022/02/03 02:58:56;;;;;;;101.47;30.20;;;5.60;99.90;;;;;;5115854;28;20501;-78
2022/02/03 03:28:55;;;;;;;135.50;38.33;;;5.70;99.90;;;;;;5115757;28;20531;-78
2022/02/03 03:30:02;;;;;;;181.63;42.10;;;5.80;99.90;;;;;;5117535;28;20538;-78
2022/02/03 03:32:52;;;;;;;182.57;47.73;;;5.90;99.90;;;;;;5120003;28;20825;-78
2022/02/03 03:35:42;;;;;;;278.50;56.20;;;5.90;99.90;;;;;;5119355;28;20432;-78
2022/02/03 03:38:11;;;;;;;240.37;53.47;;;5.90;99.90;;;;;;5120964;28;20517;-78
2022/02/03 03:40:42;;;;;;;150.60;54.07;;;5.90;99.90;;;;;;5121671;27;20537;-78
2022/02/03 03:43:14;;;;;;;182.23;49.90;;;6.00;99.90;;;;;;5117443;28;20515;-77
2022/02/03 03:45:48;;;;;;;147.70;51.73;;;6.00;99.90;;;;;;5117683;28;20466;-77
2022/02/03 03:48:19;;;;;;;172.27;50.93;;;6.00;99.90;;;;;;5118602;28;20451;-77
2022/02/03 03:50:51;;;;;;;178.27;55.57;;;6.10;99.90;;;;;;5117227;28;20550;-77
2022/02/03 03:53:24;;;;;;;122.17;48.43;;;6.10;99.90;;;;;;5117152;28;20439;-77
2022/02/03 03:56:02;;;;;;;143.87;51.50;;;6.20;99.90;;;;;;5117485;28;20454;-77
2022/02/03 04:34:30;;;;;;;154.07;42.93;;;6.60;99.90;;;;;;5118296;28;20530;-77
2022/02/03 04:43:29;;;;;;;188.37;47.63;;;6.70;99.90;;;;;;5116130;28;20436;-77
2022/02/03 04:55:28;;;;;;;180.13;54.60;;;6.80;99.90;;;;;;5112686;28;20450;-77
2022/02/03 05:01:39;;;;;;;266.43;61.80;;;6.80;99.90;;;;;;5114072;28;20443;-78
2022/02/03 05:04:32;;;;;;;244.40;61.50;;;6.90;99.90;;;;;;5116723;28;20975;-78
2022/02/03 05:07:51;;;;;;;220.20;61.03;;;6.90;99.90;;;;;;5117674;28;20936;-78
2022/02/03 05:10:44;;;;;;;319.63;64.80;;;6.90;99.90;;;;;;5081808;28;20447;-77
2022/02/03 05:13:31;;;;;;;227.37;57.40;;;6.90;99.90;;;;;;5115861;28;20558;-77
2022/02/03 05:16:25;;;;;;;225.77;56.73;;;7.00;99.90;;;;;;5115675;28;20524;-77
2022/02/03 05:19:31;;;;;;;202.30;63.57;;;7.00;99.90;;;;;;5115681;28;20473;-77
2022/02/03 05:22:57;;;;;;;204.43;61.57;;;7.00;99.90;;;;;;5115681;28;20501;-77
2022/02/03 05:43:57;;;;;;;196.47;55.33;;;7.20;99.90;;;;;;5116565;28;20432;-77
2022/02/03 05:46:47;;;;;;;183.03;61.63;;;7.20;99.90;;;;;;5115686;28;20560;-77
2022/02/03 05:55:08;;;;;;;163.90;54.47;;;7.30;99.90;;;;;;5115159;28;20837;-77
2022/02/03 06:03:31;;;;;;;272.37;59.93;;;7.30;99.90;;;;;;5085152;28;21031;-77
2022/02/03 06:06:13;;;;;;;182.20;52.03;;;7.30;99.90;;;;;;5114965;28;20442;-77
2022/02/03 06:08:55;;;;;;;182.97;61.93;;;7.40;99.90;;;;;;5114903;28;21012;-77
2022/02/03 06:14:15;;;;;;;166.17;53.23;;;7.40;99.90;;;;;;5116424;28;20443;-77
2022/02/03 06:17:00;;;;;;;323.73;71.77;;;7.40;99.90;;;;;;5116457;28;20435;-77
2022/02/03 06:22:26;;;;;;;250.53;62.33;;;7.40;99.90;;;;;;5113593;28;20519;-77
2022/02/03 06:27:54;;;;;;;243.57;60.83;;;7.50;99.90;;;;;;5113167;27;20470;-77
2022/02/03 06:30:24;;;;;;;293.90;80.70;;;7.50;99.90;;;;;;5115441;28;20420;-77
2022/02/03 06:32:52;;;;;;;328.03;65.33;;;7.50;99.90;;;;;;5115074;28;20463;-77
2022/02/03 06:35:20;;;;;;;327.70;66.93;;;7.50;99.90;;;;;;5113719;28;21042;-77
2022/02/03 06:37:49;;;;;;;326.70;73.57;;;7.60;99.90;;;;;;5113322;28;20452;-77
2022/02/03 06:40:18;;;;;;;216.93;62.23;;;7.60;99.90;;;;;;5114953;28;20453;-77
2022/02/03 06:42:47;;;;;;;242.73;59.40;;;7.60;99.90;;;;;;5113677;28;20464;-77
2022/02/03 06:45:19;;;;;;;178.23;55.80;;;7.60;99.90;;;;;;5113798;28;20474;-77
2022/02/03 06:47:56;;;;;;;225.40;60.60;;;7.60;99.90;;;;;;5113588;28;20447;-77
2022/02/03 06:50:30;;;;;;;181.57;55.33;;;7.70;99.90;;;;;;5113555;28;20469;-77
2022/02/03 06:53:03;;;;;;;173.47;52.47;;;7.70;99.90;;;;;;5115103;28;20513;-77
2022/02/03 06:55:42;;;;;;;199.90;58.53;;;7.70;99.90;;;;;;5115270;28;20916;-77
2022/02/03 06:58:15;;;;;;;227.93;63.37;;;7.70;99.90;;;;;;5113854;28;20475;-77
2022/02/03 07:00:54;;;;;;;240.57;63.80;;;7.70;99.90;;;;;;5113758;28;20465;-77
2022/02/03 07:03:27;;;;;;;277.00;57.73;;;7.80;99.90;;;;;;5113433;28;20489;-77
2022/02/03 07:05:57;;;;;;;217.83;52.27;;;7.80;99.90;;;;;;5113348;28;20546;-77
2022/02/03 07:08:26;;;;;;;339.40;69.23;;;7.80;99.90;;;;;;5114710;28;20470;-77
2022/02/03 07:10:55;;;;;;;313.80;71.40;;;7.90;99.90;;;;;;5113485;28;20545;-77
2022/02/03 07:13:24;;;;;;;173.37;50.40;;;7.90;99.90;;;;;;5115265;28;20489;-77
2022/02/03 07:15:52;;;;;;;300.33;59.80;;;7.90;99.90;;;;;;5114789;28;20530;-77
2022/02/03 07:18:20;;;;;;;400.03;74.63;;;7.90;99.90;;;;;;5115150;28;20526;-77
2022/02/03 07:20:50;;;;;;;204.63;56.93;;;8.00;99.90;;;;;;5113901;28;20444;-77
2022/02/03 07:23:19;;;;;;;175.30;55.70;;;8.00;99.90;;;;;;5113722;28;20481;-77
2022/02/03 07:25:47;;;;;;;299.70;59.60;;;8.00;99.90;;;;;;5113880;28;20447;-77
2022/02/03 07:28:15;;;;;;;196.70;55.27;;;8.00;99.90;;;;;;5113616;28;20520;-77
2022/02/03 07:30:43;;;;;;;331.33;68.03;;;8.00;99.90;;;;;;5113660;28;20451;-77
2022/02/03 07:33:12;;;;;;;332.00;62.63;;;8.10;99.90;;;;;;5113433;28;20468;-77
2022/02/03 07:35:40;;;;;;;329.03;68.33;;;8.10;99.90;;;;;;5113864;28;20531;-77
2022/02/03 07:38:11;;;;;;;302.87;61.17;;;8.10;99.90;;;;;;5114914;28;20465;-77
2022/02/03 07:40:41;;;;;;;305.20;79.70;;;8.10;99.90;;;;;;5114118;28;20440;-77
2022/02/03 07:43:10;;;;;;;314.17;69.63;;;8.10;99.90;;;;;;5113849;28;20541;-77
2022/02/03 07:45:39;;;;;;;206.17;68.33;;;8.10;99.90;;;;;;5113670;28;20444;-77
2022/02/03 07:48:07;;;;;;;308.43;65.73;;;8.20;99.90;;;;;;5113703;28;20506;-77
2022/02/03 07:50:35;;;;;;;202.17;59.53;;;8.20;99.90;;;;;;5115221;28;20441;-77
2022/02/03 07:53:03;;;;;;;303.87;66.63;;;8.20;99.90;;;;;;5113484;28;20466;-78
2022/02/03 07:55:35;;;;;;;352.40;84.13;;;8.20;99.90;;;;;;5113522;28;20945;-77
2022/02/03 07:58:03;;;;;;;300.83;71.03;;;8.20;99.90;;;;;;5115160;28;20466;-77
2022/02/03 08:00:31;;;;;;;261.43;63.30;;;8.20;99.90;;;;;;5113424;28;20459;-77
2022/02/03 08:03:15;;;;;;;306.27;75.33;;;8.20;99.90;;;;;;5113758;28;20457;-77
2022/02/03 08:05:48;;;;;;;237.33;63.47;;;8.20;99.90;;;;;;5114500;28;20931;-77
2022/02/03 08:08:22;;;;;;;334.53;75.47;;;8.20;99.90;;;;;;5113687;28;20494;-77
2022/02/03 08:10:55;;;;;;;434.60;90.00;;;8.20;99.90;;;;;;5113682;28;20483;-77
2022/02/03 08:13:27;;;;;;;249.30;71.00;;;8.30;99.90;;;;;;5113502;28;20991;-77
2022/02/03 08:16:02;;;;;;;330.97;81.00;;;8.20;99.90;;;;;;5115731;28;20535;-77
2022/02/03 08:18:39;;;;;;;335.23;84.93;;;8.30;99.90;;;;;;5117370;28;20474;-77
2022/02/03 08:21:10;;;;;;;218.00;70.53;;;8.30;99.90;;;;;;5117043;28;20459;-77
2022/02/03 08:24:03;;;;;;;374.07;85.40;;;8.30;99.90;;;;;;5117193;28;20477;-77
2022/02/03 08:29:36;;;;;;;346.03;88.43;;;8.30;99.90;;;;;;5116823;28;20485;-77
2022/02/03 08:32:10;;;;;;;268.67;78.17;;;8.30;99.90;;;;;;5116071;28;20461;-77
2022/02/03 08:34:47;;;;;;;234.17;73.73;;;8.30;99.90;;;;;;5117530;28;20562;-78
2022/02/03 08:37:17;;;;;;;337.37;92.63;;;8.40;99.90;;;;;;5117094;28;20946;-78
2022/02/03 08:39:53;;;;;;;353.70;89.17;;;8.40;99.90;;;;;;5117867;28;20467;-78
2022/02/03 08:42:23;;;;;;;314.40;92.30;;;8.40;99.90;;;;;;5121059;28;20459;-78
2022/02/03 08:44:51;;;;;;;382.10;96.97;;;8.40;99.90;;;;;;5119179;28;20439;-78
2022/02/03 08:47:20;;;;;;;314.43;87.87;;;8.40;99.90;;;;;;5118262;28;20517;-77
2022/02/03 08:49:48;;;;;;;329.73;93.33;;;8.40;99.90;;;;;;5116540;28;20471;-77
2022/02/03 08:52:18;;;;;;;355.77;90.70;;;8.40;99.90;;;;;;5118156;28;20443;-77
2022/02/03 08:55:00;;;;;;;385.50;93.97;;;8.40;99.90;;;;;;5116878;28;20873;-77
2022/02/03 08:57:42;;;;;;;332.13;88.23;;;8.40;99.90;;;;;;5116353;28;20473;-77
2022/02/03 09:00:36;;;;;;;345.43;87.07;;;8.40;99.90;;;;;;5117573;28;20517;-77
2022/02/03 09:34:50;;;;;;;343.67;72.13;;;8.50;99.90;;;;;;5109093;28;20463;-77
2022/02/03 09:37:33;;;;;;;283.23;64.17;;;8.50;99.90;;;;;;5115970;28;20533;-77
2022/02/03 09:57:12;;;;;;;200.47;42.73;;;8.50;99.90;;;;;;5101357;28;20493;-77
2022/02/03 09:59:49;;;;;;;331.43;66.70;;;8.50;99.90;;;;;;5116274;28;20593;-77
2022/02/03 10:02:22;;;;;;;226.53;53.17;;;8.50;99.90;;;;;;5116543;28;20434;-77
2022/02/03 10:04:56;;;;;;;195.70;53.53;;;8.50;99.90;;;;;;5116342;28;20831;-77
2022/02/03 10:07:30;;;;;;;418.50;70.97;;;8.50;99.90;;;;;;5115851;28;20541;-77
2022/02/03 10:10:00;;;;;;;427.77;59.07;;;8.50;99.90;;;;;;5115899;28;20907;-77
2022/02/03 10:12:33;;;;;;;235.67;54.30;;;8.50;99.90;;;;;;5114774;28;20455;-77
2022/02/03 10:15:03;;;;;;;333.87;73.47;;;8.50;99.90;;;;;;5115951;28;21045;-77
2022/02/03 10:17:37;;;;;;;349.73;65.77;;;8.50;99.90;;;;;;5114735;28;20777;-78
2022/02/03 10:20:11;;;;;;;274.97;59.13;;;8.50;99.90;;;;;;5116065;28;20507;-77
2022/02/03 10:22:48;;;;;;;338.63;62.50;;;8.40;99.90;;;;;;5114324;28;20927;-77
2022/02/03 10:25:23;;;;;;;387.87;61.57;;;8.50;99.90;;;;;;5114603;28;20883;-77
2022/02/03 10:27:59;;;;;;;528.67;77.40;;;8.40;99.90;;;;;;5114076;28;20455;-76
2022/02/03 10:30:35;;;;;;;156.90;42.03;;;8.40;99.90;;;;;;5113953;28;20432;-77
2022/02/03 10:33:04;;;;;;;204.00;64.83;;;8.50;99.90;;;;;;5115551;28;20407;-77
2022/02/03 10:35:40;;;;;;;272.00;55.97;;;8.40;99.90;;;;;;5115058;28;20481;-77
2022/02/03 10:41:38;;;;;;;336.90;60.93;;;8.40;99.90;;;;;;5113916;28;20482;-77
2022/02/03 10:44:26;;;;;;;389.23;77.70;;;8.40;99.90;;;;;;5114885;28;20445;-77
2022/02/03 10:50:23;;;;;;;236.67;52.53;;;8.40;99.90;;;;;;5110390;28;20459;-77
2022/02/03 10:53:25;;;;;;;244.67;45.63;;;8.40;99.90;;;;;;5113639;28;20474;-77
2022/02/03 10:56:05;;;;;;;268.90;45.50;;;8.40;99.90;;;;;;5113615;28;20449;-77
2022/02/03 11:06:59;;;;;;;286.70;50.10;;;8.50;99.90;;;;;;5096751;28;20495;-77
2022/02/03 11:09:40;;;;;;;255.20;51.47;;;8.50;99.90;;;;;;5113035;28;20987;-77
2022/02/03 11:12:15;;;;;;;269.33;44.63;;;8.50;99.90;;;;;;5113383;28;20443;-77
2022/02/03 11:14:44;;;;;;;330.83;46.67;;;8.50;99.90;;;;;;5114462;28;20471;-77
2022/02/03 11:17:14;;;;;;;224.50;45.93;;;8.50;99.90;;;;;;5113312;28;20445;-77
2022/02/03 11:19:48;;;;;;;416.60;64.83;;;8.50;99.90;;;;;;5112853;28;21102;-77
2022/02/03 11:22:22;;;;;;;415.57;61.20;;;8.50;99.90;;;;;;5112813;28;20446;-77
2022/02/03 11:25:04;;;;;;;294.10;44.77;;;8.50;99.90;;;;;;5113004;28;20435;-77
2022/02/03 11:27:48;;;;;;;432.73;61.67;;;8.50;99.90;;;;;;5113005;28;20504;-77
2022/02/03 11:30:57;;;;;;;273.53;45.17;;;8.50;99.90;;;;;;5112835;28;20831;-77
2022/02/03 11:42:21;;;;;;;243.90;44.77;;;8.60;99.90;;;;;;5108747;28;20446;-78
2022/02/03 11:48:28;;;;;;;334.80;48.30;;;8.60;99.90;;;;;;5112627;28;20494;-78
2022/02/03 12:02:48;;;;;;;511.87;86.07;;;8.60;99.90;;;;;;5116738;28;20539;-77
2022/02/03 12:06:11;;;;;;;190.97;32.07;;;8.60;99.90;;;;;;5116303;28;20541;-77
2022/02/03 12:12:13;;;;;;;284.70;51.17;;;8.60;99.90;;;;;;5116488;28;20857;-77
2022/02/03 12:15:17;;;;;;;387.37;53.63;;;8.60;99.90;;;;;;5116528;28;20825;-77
2022/02/03 12:17:55;;;;;;;333.60;49.23;;;8.60;99.90;;;;;;5115933;28;20564;-77
2022/02/03 12:20:37;;;;;;;352.87;46.80;;;8.60;99.90;;;;;;5117596;28;20438;-77
2022/02/03 12:23:11;;;;;;;448.63;49.43;;;8.60;99.90;;;;;;5116140;28;20579;-77
2022/02/03 12:25:55;;;;;;;319.73;44.57;;;8.60;99.90;;;;;;5115980;28;21000;-77
2022/02/03 12:28:36;;;;;;;327.93;52.53;;;8.60;99.90;;;;;;5117328;28;20471;-77
2022/02/03 12:39:48;;;;;;;511.87;66.10;;;8.60;99.90;;;;;;5115742;28;20471;-77
2022/02/03 12:42:22;;;;;;;407.50;69.47;;;8.60;99.90;;;;;;5115292;28;20450;-77
2022/02/03 12:45:00;;;;;;;162.67;28.17;;;8.60;99.90;;;;;;5115692;28;20449;-77
2022/02/03 12:47:28;;;;;;;523.37;63.67;;;8.70;99.90;;;;;;5115264;28;20550;-77
2022/02/03 12:49:58;;;;;;;304.30;50.33;;;8.60;99.90;;;;;;5116326;28;20968;-76
2022/02/03 12:52:28;;;;;;;324.73;36.73;;;8.60;99.90;;;;;;5115261;28;20513;-76
2022/02/03 12:54:57;;;;;;;299.10;51.33;;;8.60;99.90;;;;;;5115247;28;20470;-76
2022/02/03 12:57:33;;;;;;;439.90;45.17;;;8.70;99.90;;;;;;5115213;28;20458;-77
2022/02/03 13:00:14;;;;;;;314.30;47.20;;;8.70;99.90;;;;;;5115160;28;20440;-76
2022/02/03 13:02:51;;;;;;;455.57;56.23;;;8.70;99.90;;;;;;5114923;28;21010;-77
2022/02/03 13:05:23;;;;;;;162.80;30.30;;;8.70;99.90;;;;;;5116256;28;20422;-77
2022/02/03 13:07:53;;;;;;;267.90;43.90;;;8.70;99.90;;;;;;5114790;28;20502;-77
2022/02/03 13:10:23;;;;;;;465.77;56.43;;;8.70;99.90;;;;;;5116668;28;20443;-77
2022/02/03 13:13:00;;;;;;;200.17;40.30;;;8.70;99.90;;;;;;5114878;28;20445;-76
2022/02/03 13:15:37;;;;;;;282.10;40.13;;;8.70;99.90;;;;;;5114639;28;20571;-76
2022/02/03 13:18:10;;;;;;;230.20;45.70;;;8.80;99.90;;;;;;5114473;27;20517;-76
2022/02/03 13:20:46;;;;;;;175.07;32.47;;;8.80;99.90;;;;;;5114773;28;20436;-77
2022/02/03 13:23:19;;;;;;;413.07;50.97;;;8.80;99.90;;;;;;5116262;28;20459;-77
2022/02/03 13:26:04;;;;;;;269.97;49.40;;;8.80;99.90;;;;;;5116234;28;20502;-77
2022/02/03 13:28:42;;;;;;;251.10;46.20;;;8.80;99.90;;;;;;5114739;28;20475;-77
2022/02/03 13:31:21;;;;;;;518.97;63.23;;;8.80;99.90;;;;;;5114449;28;20541;-77
2022/02/03 13:34:01;;;;;;;280.33;40.67;;;8.80;99.90;;;;;;5115147;28;20423;-76
2022/02/03 13:36:40;;;;;;;253.20;30.13;;;8.80;99.90;;;;;;5114179;28;20470;-77
2022/02/03 13:39:12;;;;;;;240.90;50.37;;;8.80;99.90;;;;;;5115534;28;20489;-77
2022/02/03 13:41:44;;;;;;;275.80;52.23;;;8.80;99.90;;;;;;5114442;28;20963;-77
2022/02/03 13:44:16;;;;;;;195.70;32.20;;;8.80;99.90;;;;;;5114277;28;20522;-77
2022/02/03 13:46:44;;;;;;;264.83;50.87;;;8.80;99.90;;;;;;5115669;28;20420;-76
2022/02/03 13:49:18;;;;;;;446.50;50.13;;;8.80;99.90;;;;;;5114125;28;20939;-77
2022/02/03 13:51:58;;;;;;;413.10;60.97;;;8.70;99.90;;;;;;5115421;28;20438;-76
2022/02/03 13:54:39;;;;;;;533.23;74.23;;;8.70;99.90;;;;;;5113975;28;20459;-76
2022/02/03 14:20:13;;;;;;;373.90;45.67;;;8.60;99.90;;;;;;5093463;28;20462;-77
2022/02/03 14:22:59;;;;;;;364.77;53.17;;;8.60;99.90;;;;;;5113397;28;20481;-77
2022/02/03 14:28:14;;;;;;;494.13;67.63;;;8.60;99.90;;;;;;5114510;28;20471;-77
2022/02/03 14:30:46;;;;;;;377.13;54.20;;;8.60;99.90;;;;;;5113455;28;20449;-77
2022/02/03 14:33:17;;;;;;;312.90;48.03;;;8.60;99.90;;;;;;5113127;28;20936;-77
2022/02/03 14:35:47;;;;;;;436.10;58.53;;;8.60;99.90;;;;;;5114139;28;20512;-76
2022/02/03 14:38:19;;;;;;;405.37;69.57;;;8.60;99.90;;;;;;5114231;28;20457;-77
2022/02/03 14:40:58;;;;;;;321.07;45.13;;;8.60;99.90;;;;;;5114573;28;20437;-76
2022/02/03 14:43:26;;;;;;;336.83;45.27;;;8.60;99.90;;;;;;5113141;28;20952;-77
2022/02/03 14:46:16;;;;;;;402.07;58.27;;;8.60;99.90;;;;;;5113562;28;20616;-77
2022/02/03 14:48:46;;;;;;;258.53;44.00;;;8.60;99.90;;;;;;5114679;28;20443;-77
2022/02/03 14:51:19;;;;;;;185.90;48.10;;;8.60;99.90;;;;;;5114450;28;20475;-77
2022/02/03 14:57:59;;;;;;;250.93;41.50;;;8.60;99.90;;;;;;5113425;28;20461;-77
2022/02/03 14:59:34;;;;;;;272.17;46.67;;;8.50;99.90;;;;;;5112661;28;20459;-77
2022/02/03 15:02:07;;;;;;;226.70;42.37;;;8.50;99.90;;;;;;5112765;28;20447;-77
2022/02/03 15:04:38;;;;;;;495.03;69.67;;;8.50;99.90;;;;;;5113039;28;20455;-77
2022/02/03 15:07:09;;;;;;;282.10;45.00;;;8.50;99.90;;;;;;5112733;28;20451;-77
2022/02/03 15:10:01;;;;;;;354.27;56.90;;;8.40;99.90;;;;;;5113754;28;20450;-76
2022/02/03 15:12:44;;;;;;;181.37;41.77;;;8.40;99.90;;;;;;5112687;28;20982;-76
2022/02/03 15:15:12;;;;;;;210.97;42.90;;;8.40;99.90;;;;;;5112689;28;20532;-77
2022/02/03 15:17:40;;;;;;;289.57;52.53;;;8.40;99.90;;;;;;5112498;28;20878;-76
2022/02/03 15:20:09;;;;;;;219.83;38.73;;;8.40;99.90;;;;;;5114303;28;20427;-77
2022/02/03 15:22:37;;;;;;;368.33;43.17;;;8.40;99.90;;;;;;5114125;28;20430;-76
2022/02/03 15:25:06;;;;;;;305.67;51.63;;;8.40;99.90;;;;;;5116770;28;20453;-77
2022/02/03 15:27:35;;;;;;;471.33;65.17;;;8.30;99.90;;;;;;5116944;28;20454;-77
2022/02/03 15:30:05;;;;;;;265.37;48.67;;;8.30;99.90;;;;;;5117915;28;20525;-77
2022/02/03 15:32:38;;;;;;;292.37;55.87;;;8.30;99.90;;;;;;5117870;28;20528;-77
2022/02/03 15:35:10;;;;;;;325.03;48.30;;;8.30;99.90;;;;;;5118236;28;20427;-76
2022/02/03 15:37:39;;;;;;;177.73;34.00;;;8.30;99.90;;;;;;5116540;28;20553;-77
2022/02/03 15:40:15;;;;;;;262.13;48.90;;;8.30;99.90;;;;;;5116361;28;20985;-76
2022/02/03 15:42:53;;;;;;;214.40;40.70;;;8.30;99.90;;;;;;5116438;28;20923;-76
2022/02/03 15:45:21;;;;;;;386.40;54.93;;;8.30;99.90;;;;;;5116512;28;20446;-76
2022/02/03 15:47:54;;;;;;;283.20;41.60;;;8.20;99.90;;;;;;5116312;28;20441;-77
2022/02/03 15:59:46;;;;;;;299.20;41.57;;;8.20;99.90;;;;;;5116043;28;20466;-76
2022/02/03 16:18:30;;;;;;;334.00;40.53;;;8.10;99.90;;;;;;5116728;28;20477;-77
2022/02/03 16:21:05;;;;;;;279.97;36.77;;;8.10;99.90;;;;;;5116810;28;20529;-77
2022/02/03 16:26:43;;;;;;;311.47;51.70;;;8.00;99.90;;;;;;5090862;28;20445;-77
2022/02/03 16:51:43;;;;;;;264.07;48.27;;;7.90;99.90;;;;;;5037543;28;20451;-77
2022/02/03 16:54:14;;;;;;;217.77;39.93;;;7.90;99.90;;;;;;5102943;28;20442;-77
2022/02/03 16:56:43;;;;;;;240.77;40.83;;;7.90;99.90;;;;;;5111634;28;20566;-77
2022/02/03 16:59:11;;;;;;;227.53;34.80;;;7.90;99.90;;;;;;5112129;28;20476;-77
2022/02/03 17:01:39;;;;;;;252.63;37.47;;;7.90;99.90;;;;;;5108414;28;20449;-77
2022/02/03 17:04:12;;;;;;;384.00;48.37;;;7.80;99.90;;;;;;5115900;28;20479;-77
2022/02/03 17:06:40;;;;;;;176.33;32.37;;;7.80;99.90;;;;;;5115687;28;20473;-77
2022/02/03 17:09:08;;;;;;;309.60;51.00;;;7.80;99.90;;;;;;5109531;28;20480;-77
2022/02/03 17:11:36;;;;;;;263.03;51.27;;;7.90;99.90;;;;;;5097317;28;20471;-77
2022/02/03 17:14:04;;;;;;;247.70;40.97;;;7.80;99.90;;;;;;5112667;28;20484;-77
2022/02/03 17:16:33;;;;;;;257.83;41.20;;;7.80;99.90;;;;;;5116780;28;20499;-77
2022/02/03 17:19:01;;;;;;;286.53;43.20;;;7.80;99.90;;;;;;5106461;28;20563;-77
2022/02/03 17:21:31;;;;;;;279.47;47.33;;;7.80;99.90;;;;;;5094949;28;20444;-77
2022/02/03 17:24:00;;;;;;;251.03;42.27;;;7.80;99.90;;;;;;5113508;28;20432;-77
2022/02/03 17:26:35;;;;;;;337.40;55.50;;;7.80;99.90;;;;;;5115791;28;20549;-77
2022/02/03 17:29:11;;;;;;;324.97;43.70;;;7.80;99.90;;;;;;5106289;28;20873;-77
2022/02/03 17:31:54;;;;;;;376.63;50.70;;;7.80;99.90;;;;;;5104318;28;20474;-77
2022/02/03 18:11:08;;;;;;;257.87;42.07;;;7.60;99.90;;;;;;5096130;28;20925;-77
2022/02/03 18:30:18;;;;;;;183.83;40.97;;;7.60;99.90;;;;;;5099396;28;20445;-77
2022/02/03 18:32:57;;;;;;;191.37;43.93;;;7.60;99.90;;;;;;5095573;28;20885;-77
2022/02/03 18:52:22;;;;;;;260.63;48.60;;;7.50;99.90;;;;;;5095529;28;20937;-77
2022/02/03 18:55:08;;;;;;;170.07;35.87;;;7.60;99.90;;;;;;5094373;28;20452;-77
2022/02/03 18:57:45;;;;;;;212.43;38.63;;;7.50;99.90;;;;;;5108335;28;20468;-77
2022/02/03 20:04:29;;;;;;;174.73;43.63;;;7.40;99.90;;;;;;5093113;28;20949;-77
2022/02/03 20:07:15;;;;;;;153.50;38.53;;;7.40;99.90;;;;;;5095111;28;20553;-77
2022/02/03 20:10:05;;;;;;;134.63;36.33;;;7.40;99.90;;;;;;5091744;28;20472;-77
2022/02/03 20:12:33;;;;;;;295.50;57.43;;;7.40;99.90;;;;;;5114372;28;20945;-76
2022/02/03 20:15:01;;;;;;;230.00;50.97;;;7.40;99.90;;;;;;5117140;28;20438;-76
2022/02/03 20:17:29;;;;;;;278.67;50.57;;;7.40;99.90;;;;;;5115687;28;20491;-76
2022/02/03 20:19:58;;;;;;;239.47;41.43;;;7.40;99.90;;;;;;5115705;28;20506;-77
2022/02/03 20:22:32;;;;;;;336.33;51.27;;;7.40;99.90;;;;;;5115646;28;20554;-77
2022/02/03 20:25:06;;;;;;;246.60;42.33;;;7.40;99.90;;;;;;5117473;28;20941;-77
2022/02/03 20:27:36;;;;;;;202.60;50.33;;;7.40;99.90;;;;;;5106209;28;20456;-77
2022/02/03 20:30:06;;;;;;;181.43;43.23;;;7.40;99.90;;;;;;5104945;28;20442;-77
2022/02/03 20:32:35;;;;;;;234.30;47.03;;;7.40;99.90;;;;;;5095928;28;20497;-77
2022/02/03 20:35:05;;;;;;;288.43;53.43;;;7.40;99.90;;;;;;5095086;28;20486;-77
2022/02/03 20:37:35;;;;;;;227.43;45.83;;;7.40;99.90;;;;;;5095070;28;20440;-77
2022/02/03 20:40:04;;;;;;;234.37;52.17;;;7.40;99.90;;;;;;5094890;28;20461;-77
2022/02/03 20:42:32;;;;;;;275.40;56.60;;;7.40;99.90;;;;;;5094881;28;20816;-77
2022/02/03 20:45:00;;;;;;;93.33;35.30;;;7.40;99.90;;;;;;5103884;28;20436;-76
2022/02/03 20:47:31;;;;;;;152.27;42.67;;;7.40;99.90;;;;;;5113445;28;20447;-77
2022/02/03 20:49:59;;;;;;;210.87;49.53;;;7.40;99.90;;;;;;5094954;28;20461;-76
2022/02/03 20:52:27;;;;;;;205.73;42.27;;;7.40;99.90;;;;;;5097877;28;20447;-77
2022/02/03 20:54:56;;;;;;;81.53;37.53;;;7.40;99.90;;;;;;5115158;28;20539;-76
2022/02/03 20:57:25;;;;;;;167.73;43.07;;;7.40;99.90;;;;;;5115097;28;20948;-77
2022/02/03 21:00:08;;;;;;;245.13;58.13;;;7.30;99.90;;;;;;5115099;28;20471;-77
2022/02/03 21:02:43;;;;;;;180.93;41.13;;;7.30;99.90;;;;;;5103069;28;20467;-77
2022/02/03 21:05:15;;;;;;;238.67;53.50;;;7.30;99.90;;;;;;5094664;28;20979;-77
2022/02/03 21:07:44;;;;;;;263.87;52.40;;;7.30;99.90;;;;;;5094545;28;20460;-77
2022/02/03 21:10:17;;;;;;;225.53;49.43;;;7.30;99.90;;;;;;5094507;28;20480;-77
2022/02/03 21:12:47;;;;;;;222.03;46.77;;;7.30;99.90;;;;;;5103231;28;20484;-77
2022/02/03 21:15:22;;;;;;;225.87;46.53;;;7.30;99.90;;;;;;5105572;28;20551;-77
2022/02/03 21:17:51;;;;;;;165.90;43.30;;;7.30;99.90;;;;;;5115888;28;20838;-77
2022/02/03 21:20:22;;;;;;;287.70;55.70;;;7.30;99.90;;;;;;5112754;28;20477;-77
2022/02/03 21:22:52;;;;;;;177.63;55.13;;;7.30;99.90;;;;;;5095893;28;20457;-77
2022/02/03 21:25:28;;;;;;;278.07;63.00;;;7.20;99.90;;;;;;5106184;28;20451;-77
2022/02/03 21:28:02;;;;;;;240.50;46.63;;;7.20;99.90;;;;;;5116362;28;20411;-77